createdAt,value
2023-04-16T00:00:20.852Z,12.4446
2023-04-16T00:01:23.770Z,14.2115
2023-04-16T00:02:26.829Z,13.4611
2023-04-16T00:03:29.843Z,15.7229
2023-04-16T00:04:32.636Z,15.6307
2023-04-16T00:05:35.534Z,15.7067
2023-04-16T00:06:38.502Z,14.6730
2023-04-16T00:07:41.431Z,14.2658
2023-04-16T00:08:44.358Z,14.1021
2023-04-16T00:09:47.301Z,14.5900
2023-04-16T00:10:50.263Z,14.2292
2023-04-16T00:11:53.204Z,14.1066
2023-04-16T00:12:56.152Z,12.8444
2023-04-16T00:13:59.075Z,13.5928
2023-04-16T00:15:02.076Z,13.7081
2023-04-16T00:16:04.958Z,12.5901
2023-04-16T00:17:08.034Z,12.1848
2023-04-16T00:18:10.885Z,12.4507
2023-04-16T00:19:13.860Z,13.3780
2023-04-16T00:20:16.772Z,12.2289
2023-04-16T00:21:19.706Z,12.3868
2023-04-16T00:22:22.664Z,10.6604
2023-04-16T00:23:25.593Z,10.9906
2023-04-16T00:24:28.589Z,10.7559
2023-04-16T00:25:31.480Z,8.6212
2023-04-16T00:26:34.415Z,9.3725
2023-04-16T00:27:37.409Z,9.0371
2023-04-16T00:28:40.304Z,9.0212
2023-04-16T00:29:43.254Z,8.7748
2023-04-16T00:30:46.224Z,6.7556
2023-04-16T00:31:49.138Z,8.0704
2023-04-16T00:32:52.193Z,7.9185
2023-04-16T00:33:55.023Z,9.4336
2023-04-16T00:34:57.964Z,9.0872
2023-04-16T00:36:00.951Z,7.7628
2023-04-16T00:37:03.926Z,9.5338
2023-04-16T00:38:06.815Z,9.0978
2023-04-16T00:39:09.883Z,9.1769
2023-04-16T00:40:12.713Z,7.8422
2023-04-16T00:41:15.632Z,7.6905
2023-04-16T00:42:18.591Z,7.9403
2023-04-16T00:43:21.541Z,7.8498
2023-04-16T00:44:24.469Z,8.4162
2023-04-16T00:45:27.456Z,8.4061
2023-04-16T00:46:30.383Z,7.5561
2023-04-16T00:47:33.456Z,8.4080
2023-04-16T00:48:36.257Z,8.5742
2023-04-16T00:49:39.184Z,7.0809
2023-04-16T00:50:42.150Z,8.2976
2023-04-16T00:51:45.061Z,9.0486
2023-04-16T00:52:48.023Z,9.1182
2023-04-16T00:53:50.959Z,8.7231
2023-04-16T00:54:53.919Z,9.4675
2023-04-16T00:55:56.895Z,9.1341
2023-04-16T00:56:59.800Z,9.3367
2023-04-16T00:58:02.756Z,9.6487
2023-04-16T00:59:05.690Z,9.2864
2023-04-16T01:00:08.662Z,10.1378
2023-04-16T01:01:11.608Z,10.5018
2023-04-16T01:02:14.743Z,10.7807
2023-04-16T01:03:17.624Z,11.1019
2023-04-16T01:04:20.509Z,10.9397
2023-04-16T01:05:23.413Z,9.9341
2023-04-16T01:06:26.298Z,10.0544
2023-04-16T01:07:29.231Z,10.0544
2023-04-16T01:08:32.243Z,10.0727
2023-04-16T01:09:35.133Z,9.8478
2023-04-16T01:10:38.134Z,9.5837
2023-04-16T01:11:41.035Z,9.8407
2023-04-16T01:12:43.958Z,10.0414
2023-04-16T01:13:46.917Z,9.4595
2023-04-16T01:14:49.839Z,10.9387
2023-04-16T01:15:52.855Z,8.4107
2023-04-16T01:16:55.736Z,9.2102
2023-04-16T01:17:58.762Z,9.7465
2023-04-16T01:19:01.659Z,10.0377
2023-04-16T01:20:04.652Z,8.4722
2023-04-16T01:21:07.507Z,9.8816
2023-04-16T01:22:10.468Z,10.6049
2023-04-16T01:23:13.416Z,10.2487
2023-04-16T01:24:16.346Z,9.9840
2023-04-16T01:25:19.287Z,10.4970
2023-04-16T01:26:22.226Z,10.1945
2023-04-16T01:27:25.191Z,11.0664
2023-04-16T01:28:28.300Z,9.7706
2023-04-16T01:29:31.062Z,9.5641
2023-04-16T01:30:34.004Z,8.4195
2023-04-16T01:31:36.970Z,9.9318
2023-04-16T01:32:39.904Z,10.8753
2023-04-16T01:33:42.930Z,11.3259
2023-04-16T01:34:45.777Z,11.5789
2023-04-16T01:35:48.728Z,12.0440
2023-04-16T01:36:51.807Z,10.4735
2023-04-16T01:37:54.595Z,11.8466
2023-04-16T01:38:57.606Z,11.0905
2023-04-16T01:40:00.489Z,11.8753
2023-04-16T01:41:03.424Z,12.5104
2023-04-16T01:42:06.570Z,11.4852
2023-04-16T01:43:09.430Z,11.1672
2023-04-16T01:44:12.320Z,12.0373
2023-04-16T01:45:15.204Z,11.7976
2023-04-16T01:46:18.213Z,12.4452
2023-04-16T01:47:21.135Z,11.9392
2023-04-16T01:48:24.027Z,11.9433
2023-04-16T01:49:26.967Z,11.6930
2023-04-16T01:50:29.950Z,13.0885
2023-04-16T01:51:32.860Z,13.3382
2023-04-16T01:52:35.821Z,11.5278
2023-04-16T01:53:38.754Z,11.7286
2023-04-16T01:54:41.693Z,11.9933
2023-04-16T01:55:44.810Z,12.8202
2023-04-16T01:56:47.591Z,11.6971
2023-04-16T01:57:50.577Z,11.7739
2023-04-16T01:58:53.496Z,11.0256
2023-04-16T01:59:56.449Z,11.0933
2023-04-16T02:00:59.438Z,12.0816
2023-04-16T02:02:02.404Z,12.6545
2023-04-16T02:03:05.357Z,14.1931
2023-04-16T02:04:08.255Z,12.5570
2023-04-16T02:05:11.168Z,13.3481
2023-04-16T02:06:14.187Z,11.5052
2023-04-16T02:07:17.070Z,11.0347
2023-04-16T02:08:20.036Z,11.5266
2023-04-16T02:09:22.939Z,11.3492
2023-04-16T02:10:25.880Z,12.1399
2023-04-16T02:11:28.831Z,13.2868
2023-04-16T02:12:31.785Z,12.4602
2023-04-16T02:13:34.730Z,12.8750
2023-04-16T02:14:37.680Z,13.9123
2023-04-16T02:15:40.631Z,12.7795
2023-04-16T02:16:43.577Z,13.0662
2023-04-16T02:17:46.694Z,12.0378
2023-04-16T02:18:49.420Z,12.9149
2023-04-16T02:19:52.477Z,13.0078
2023-04-16T02:20:55.317Z,13.8351
2023-04-16T02:21:58.276Z,11.9653
2023-04-16T02:23:01.204Z,12.7916
2023-04-16T02:24:04.136Z,13.7973
2023-04-16T02:25:07.076Z,14.0828
2023-04-16T02:26:10.028Z,12.3961
2023-04-16T02:27:13.108Z,12.1369
2023-04-16T02:28:15.955Z,11.7609
2023-04-16T02:29:18.852Z,12.6853
2023-04-16T02:30:21.797Z,13.9081
2023-04-16T02:31:24.844Z,12.6595
2023-04-16T02:32:27.723Z,11.4575
2023-04-16T02:33:30.663Z,13.3116
2023-04-16T02:34:33.610Z,12.8872
2023-04-16T02:35:36.519Z,12.9636
2023-04-16T02:36:39.497Z,13.2493
2023-04-16T02:37:42.417Z,12.9354
2023-04-16T02:38:45.407Z,14.8517
2023-04-16T02:39:48.297Z,14.8943
2023-04-16T02:40:51.259Z,16.0611
2023-04-16T02:41:54.173Z,15.6442
2023-04-16T02:42:57.208Z,20.3533
2023-04-16T02:44:00.081Z,20.0575
2023-04-16T02:45:03.035Z,22.0898
2023-04-16T02:46:06.087Z,20.1839
2023-04-16T02:47:08.914Z,19.2303
2023-04-16T02:48:11.911Z,18.1703
2023-04-16T02:49:14.822Z,17.4251
2023-04-16T02:50:17.768Z,18.4096
2023-04-16T02:51:20.746Z,20.9158
2023-04-16T02:52:23.648Z,22.1833
2023-04-16T02:53:26.642Z,20.4730
2023-04-16T02:54:29.533Z,19.8659
2023-04-16T02:55:32.489Z,17.8935
2023-04-16T02:56:35.433Z,22.2154
2023-04-16T02:57:38.426Z,21.0666
2023-04-16T02:58:41.328Z,20.3055
2023-04-16T02:59:44.263Z,20.8763
2023-04-16T03:00:47.217Z,19.6069
2023-04-16T03:01:50.255Z,17.9049
2023-04-16T03:02:53.139Z,16.8220
2023-04-16T03:03:56.089Z,17.5738
2023-04-16T03:04:59.041Z,15.6846
2023-04-16T03:06:01.964Z,16.6472
2023-04-16T03:07:04.872Z,15.8382
2023-04-16T03:08:07.810Z,13.7277
2023-04-16T03:09:10.976Z,15.6565
2023-04-16T03:10:13.723Z,15.7500
2023-04-16T03:11:16.687Z,14.7513
2023-04-16T03:12:19.792Z,15.0306
2023-04-16T03:13:22.528Z,15.0742
2023-04-16T03:14:25.468Z,16.3658
2023-04-16T03:15:28.503Z,14.7341
2023-04-16T03:16:31.368Z,16.8186
2023-04-16T03:17:34.378Z,16.5027
2023-04-16T03:18:37.261Z,16.1354
2023-04-16T03:19:40.194Z,18.6947
2023-04-16T03:20:43.160Z,16.8624
2023-04-16T03:21:46.090Z,14.9768
2023-04-16T03:22:49.043Z,14.8909
2023-04-16T03:23:52.003Z,18.3622
2023-04-16T03:24:54.935Z,15.5367
2023-04-16T03:25:57.873Z,15.5775
2023-04-16T03:27:00.865Z,17.5716
2023-04-16T03:28:03.826Z,18.5969
2023-04-16T03:29:07.009Z,18.4617
2023-04-16T03:30:09.642Z,16.7639
2023-04-16T03:31:12.624Z,17.8904
2023-04-16T03:32:15.652Z,16.6951
2023-04-16T03:33:18.479Z,20.4398
2023-04-16T03:34:21.475Z,20.3888
2023-04-16T03:35:24.368Z,19.1916
2023-04-16T03:36:27.534Z,19.0607
2023-04-16T03:37:30.305Z,19.2487
2023-04-16T03:38:33.180Z,18.9596
2023-04-16T03:39:36.151Z,21.8790
2023-04-16T03:40:39.082Z,19.0811
2023-04-16T03:41:42.044Z,21.3995
2023-04-16T03:42:45.000Z,22.9253
2023-04-16T03:43:47.929Z,18.6595
2023-04-16T03:44:50.867Z,21.1010
2023-04-16T03:45:53.840Z,18.9501
2023-04-16T03:46:56.970Z,21.5870
2023-04-16T03:47:59.714Z,22.2614
2023-04-16T03:49:02.640Z,22.0494
2023-04-16T03:50:05.598Z,21.4434
2023-04-16T03:51:08.530Z,22.4214
2023-04-16T03:52:11.493Z,22.1373
2023-04-16T03:53:14.429Z,21.3387
2023-04-16T03:54:17.384Z,21.4705
2023-04-16T03:55:20.298Z,22.8262
2023-04-16T03:56:23.262Z,21.6090
2023-04-16T03:57:26.252Z,21.9300
2023-04-16T03:58:29.148Z,24.2288
2023-04-16T03:59:32.094Z,22.7523
2023-04-16T04:00:35.042Z,24.3854
2023-04-16T04:01:38.057Z,24.3451
2023-04-16T04:02:41.151Z,21.6657
2023-04-16T04:03:44.106Z,23.6188
2023-04-16T04:04:47.009Z,25.3909
2023-04-16T04:05:49.833Z,23.7303
2023-04-16T04:06:52.843Z,22.7741
2023-04-16T04:07:55.729Z,21.8654
2023-04-16T04:08:58.683Z,24.7855
2023-04-16T04:10:01.683Z,22.9724
2023-04-16T04:11:04.571Z,23.9886
2023-04-16T04:12:07.525Z,24.2043
2023-04-16T04:13:10.513Z,22.2181
2023-04-16T04:14:13.399Z,23.6677
2023-04-16T04:15:16.332Z,23.8757
2023-04-16T04:16:19.278Z,23.5631
2023-04-16T04:17:22.359Z,23.2540
2023-04-16T04:18:25.154Z,22.3226
2023-04-16T04:19:28.172Z,22.3835
2023-04-16T04:20:31.112Z,23.2220
2023-04-16T04:21:34.027Z,23.1966
2023-04-16T04:22:37.000Z,24.3982
2023-04-16T04:23:39.901Z,23.0608
2023-04-16T04:24:42.842Z,21.7009
2023-04-16T04:25:45.830Z,23.5674
2023-04-16T04:26:48.740Z,23.9776
2023-04-16T04:27:51.675Z,22.3399
2023-04-16T04:28:54.618Z,24.1063
2023-04-16T04:29:57.588Z,21.5891
2023-04-16T04:31:00.558Z,21.8545
2023-04-16T04:32:03.500Z,21.9554
2023-04-16T04:33:06.511Z,23.9885
2023-04-16T04:34:09.352Z,22.9682
2023-04-16T04:35:12.315Z,24.1928
2023-04-16T04:36:15.382Z,22.2160
2023-04-16T04:37:18.198Z,23.0307
2023-04-16T04:38:21.182Z,23.8764
2023-04-16T04:39:24.106Z,24.8988
2023-04-16T04:40:27.038Z,22.9702
2023-04-16T04:41:29.997Z,22.1196
2023-04-16T04:42:32.947Z,22.3324
2023-04-16T04:43:35.892Z,23.3217
2023-04-16T04:44:38.801Z,20.6365
2023-04-16T04:45:41.741Z,22.5840
2023-04-16T04:46:44.703Z,23.5978
2023-04-16T04:47:47.686Z,21.8884
2023-04-16T04:48:50.573Z,22.8194
2023-04-16T04:49:53.545Z,20.4580
2023-04-16T04:50:56.464Z,24.2334
2023-04-16T04:51:59.413Z,22.8693
2023-04-16T04:53:02.337Z,24.0973
2023-04-16T04:54:05.277Z,25.3966
2023-04-16T04:55:08.243Z,24.5969
2023-04-16T04:56:12.772Z,23.3690
2023-04-16T04:57:14.113Z,25.0726
2023-04-16T04:58:17.058Z,23.7138
2023-04-16T04:59:20.016Z,22.9394
2023-04-16T05:00:22.988Z,23.9931
2023-04-16T05:01:25.981Z,22.5260
2023-04-16T05:02:28.922Z,24.0789
2023-04-16T05:03:31.884Z,24.5369
2023-04-16T05:04:34.783Z,23.3388
2023-04-16T05:05:37.736Z,24.6817
2023-04-16T05:06:40.629Z,27.0127
2023-04-16T05:07:43.600Z,25.8520
2023-04-16T05:08:46.521Z,27.1626
2023-04-16T05:09:49.477Z,27.7877
2023-04-16T05:10:52.432Z,28.6206
2023-04-16T05:11:55.391Z,28.2130
2023-04-16T05:12:58.323Z,33.5865
2023-04-16T05:14:01.264Z,30.3730
2023-04-16T05:15:04.194Z,30.7041
2023-04-16T05:16:07.164Z,31.4226
2023-04-16T05:17:10.126Z,32.0075
2023-04-16T05:18:13.081Z,32.3672
2023-04-16T05:19:15.987Z,31.8606
2023-04-16T05:20:19.002Z,32.2819
2023-04-16T05:21:21.887Z,31.6567
2023-04-16T05:22:24.865Z,34.8435
2023-04-16T05:23:27.787Z,34.3788
2023-04-16T05:24:30.898Z,33.1394
2023-04-16T05:25:33.697Z,34.2391
2023-04-16T05:26:36.654Z,35.1792
2023-04-16T05:27:39.576Z,35.9145
2023-04-16T05:28:42.531Z,36.6254
2023-04-16T05:29:45.469Z,35.2968
2023-04-16T05:30:48.437Z,38.3003
2023-04-16T05:31:51.434Z,36.9990
2023-04-16T05:32:54.383Z,37.8095
2023-04-16T05:33:57.264Z,38.5333
2023-04-16T05:35:00.216Z,36.6382
2023-04-16T05:36:03.161Z,39.4382
2023-04-16T05:37:06.099Z,38.7221
2023-04-16T05:38:09.037Z,40.2661
2023-04-16T05:39:12.094Z,38.0405
2023-04-16T05:40:14.955Z,40.8906
2023-04-16T05:41:17.911Z,43.2703
2023-04-16T05:42:20.836Z,39.4631
2023-04-16T05:43:24.035Z,41.3048
2023-04-16T05:44:26.725Z,39.1738
2023-04-16T05:45:29.667Z,39.0466
2023-04-16T05:46:32.737Z,42.5338
2023-04-16T05:47:35.630Z,39.1248
2023-04-16T05:48:38.564Z,42.3517
2023-04-16T05:49:41.462Z,40.6786
2023-04-16T05:50:44.398Z,40.4345
2023-04-16T05:51:47.413Z,39.8192
2023-04-16T05:52:50.309Z,41.8170
2023-04-16T05:53:53.231Z,41.2105
2023-04-16T05:54:56.196Z,41.3852
2023-04-16T05:55:59.189Z,39.9321
2023-04-16T05:57:02.135Z,41.2230
2023-04-16T05:58:05.019Z,39.2091
2023-04-16T05:59:08.287Z,40.1730
2023-04-16T06:00:10.955Z,41.1104
2023-04-16T06:01:13.913Z,39.7850
2023-04-16T06:02:16.870Z,38.9531
2023-04-16T06:03:19.790Z,39.4431
2023-04-16T06:04:22.725Z,39.0944
2023-04-16T06:05:25.664Z,37.5509
2023-04-16T06:06:28.571Z,36.9827
2023-04-16T06:07:31.519Z,37.2746
2023-04-16T06:08:34.495Z,38.6269
2023-04-16T06:09:37.411Z,38.2488
2023-04-16T06:10:40.379Z,37.3173
2023-04-16T06:11:43.317Z,37.8981
2023-04-16T06:12:46.309Z,36.3088
2023-04-16T06:13:49.299Z,36.0958
2023-04-16T06:14:52.162Z,36.2880
2023-04-16T06:15:55.161Z,38.4123
2023-04-16T06:16:58.074Z,37.8283
2023-04-16T06:18:01.209Z,38.2906
2023-04-16T06:19:03.926Z,39.3085
2023-04-16T06:20:06.874Z,38.4554
2023-04-16T06:21:09.847Z,35.5200
2023-04-16T06:22:12.749Z,37.6600
2023-04-16T06:23:15.707Z,35.7207
2023-04-16T06:24:18.655Z,35.4566
2023-04-16T06:25:21.617Z,39.0307
2023-04-16T06:26:24.570Z,39.7722
2023-04-16T06:27:27.486Z,38.5675
2023-04-16T06:28:30.429Z,35.2165
2023-04-16T06:29:40.586Z,39.3757
2023-04-16T06:30:36.349Z,36.3637
2023-04-16T06:31:39.297Z,40.4871
2023-04-16T06:32:42.320Z,39.9077
2023-04-16T06:33:45.159Z,38.7089
2023-04-16T06:34:48.095Z,38.5704
2023-04-16T06:35:51.048Z,39.6868
2023-04-16T06:36:53.999Z,40.1544
2023-04-16T06:37:56.947Z,38.1346
2023-04-16T06:38:59.899Z,42.4251
2023-04-16T06:40:02.847Z,41.8776
2023-04-16T06:41:05.955Z,36.6452
2023-04-16T06:42:08.738Z,39.1261
2023-04-16T06:43:11.653Z,37.4639
2023-04-16T06:44:14.597Z,34.3768
2023-04-16T06:45:17.556Z,31.9408
2023-04-16T06:46:20.502Z,31.5348
2023-04-16T06:47:23.544Z,30.7878
2023-04-16T06:48:26.429Z,32.1379
2023-04-16T06:49:29.331Z,31.2722
2023-04-16T06:50:32.300Z,35.3390
2023-04-16T06:51:35.226Z,35.9649
2023-04-16T06:52:38.323Z,40.8608
2023-04-16T06:53:41.109Z,46.2816
2023-04-16T06:54:44.036Z,51.6891
2023-04-16T06:55:46.993Z,53.1132
2023-04-16T06:56:49.974Z,55.7627
2023-04-16T06:57:52.903Z,51.3640
2023-04-16T06:58:55.828Z,55.4475
2023-04-16T06:59:58.780Z,57.3196
2023-04-16T07:01:01.746Z,56.9977
2023-04-16T07:02:04.754Z,55.7067
2023-04-16T07:03:07.919Z,55.3121
2023-04-16T07:04:10.682Z,54.3843
2023-04-16T07:05:13.494Z,44.3714
2023-04-16T07:06:16.440Z,38.0710
2023-04-16T07:07:19.463Z,37.9268
2023-04-16T07:08:22.337Z,36.0329
2023-04-16T07:09:25.309Z,50.9975
2023-04-16T07:10:28.225Z,50.5299
2023-04-16T07:11:31.161Z,41.7381
2023-04-16T07:12:34.116Z,34.0917
2023-04-16T07:13:37.194Z,30.1818
2023-04-16T07:14:39.994Z,28.0373
2023-04-16T07:15:42.972Z,31.5138
2023-04-16T07:16:45.920Z,32.7803
2023-04-16T07:17:48.882Z,33.6050
2023-04-16T07:18:51.778Z,33.7159
2023-04-16T07:19:54.754Z,33.0080
2023-04-16T07:20:57.715Z,28.6264
2023-04-16T07:22:00.611Z,30.8766
2023-04-16T07:23:03.607Z,30.3208
2023-04-16T07:24:06.507Z,26.9907
2023-04-16T07:25:09.520Z,26.8994
2023-04-16T07:26:12.423Z,27.8437
2023-04-16T07:27:15.450Z,30.1554
2023-04-16T07:28:18.300Z,29.6980
2023-04-16T07:29:21.258Z,25.3608
2023-04-16T07:30:24.206Z,27.2666
2023-04-16T07:31:27.348Z,28.3087
2023-04-16T07:32:30.101Z,26.6672
2023-04-16T07:33:33.049Z,28.0489
2023-04-16T07:34:35.966Z,28.1921
2023-04-16T07:35:38.943Z,25.7273
2023-04-16T07:36:41.937Z,24.4848
2023-04-16T07:37:44.801Z,23.6208
2023-04-16T07:38:47.751Z,26.0202
2023-04-16T07:39:50.697Z,25.5675
2023-04-16T07:40:53.672Z,24.5011
2023-04-16T07:41:56.592Z,26.5969
2023-04-16T07:42:59.655Z,27.7110
2023-04-16T07:44:02.525Z,28.9991
2023-04-16T07:45:05.489Z,28.2164
2023-04-16T07:46:08.480Z,29.4745
2023-04-16T07:47:11.301Z,28.7070
2023-04-16T07:48:14.289Z,28.7481
2023-04-16T07:49:17.197Z,30.0731
2023-04-16T07:50:20.142Z,28.8067
2023-04-16T07:51:23.110Z,29.4467
2023-04-16T07:52:26.028Z,29.7777
2023-04-16T07:53:28.966Z,30.3812
2023-04-16T07:54:31.952Z,30.4441
2023-04-16T07:55:34.850Z,30.9295
2023-04-16T07:56:37.797Z,30.9133
2023-04-16T07:57:40.779Z,32.3242
2023-04-16T07:58:43.740Z,31.7599
2023-04-16T07:59:46.654Z,29.9521
2023-04-16T08:00:50.872Z,28.7526
2023-04-16T08:01:52.566Z,26.4892
2023-04-16T08:02:55.583Z,28.1651
2023-04-16T08:03:58.496Z,29.4574
2023-04-16T08:05:01.455Z,30.1087
2023-04-16T08:06:04.302Z,34.1701
2023-04-16T08:07:07.285Z,33.0258
2023-04-16T08:08:10.185Z,32.7197
2023-04-16T08:09:13.242Z,31.0656
2023-04-16T08:10:16.079Z,33.1042
2023-04-16T08:11:19.041Z,32.6187
2023-04-16T08:12:21.981Z,33.3788
2023-04-16T08:13:24.992Z,33.7720
2023-04-16T08:14:27.939Z,36.3475
2023-04-16T08:15:30.917Z,35.0400
2023-04-16T08:16:33.835Z,36.1557
2023-04-16T08:17:36.892Z,34.9618
2023-04-16T08:18:39.740Z,36.7192
2023-04-16T08:19:42.692Z,42.5693
2023-04-16T08:20:45.617Z,45.5441
2023-04-16T08:21:48.595Z,48.5641
2023-04-16T08:22:51.522Z,46.0245
2023-04-16T08:23:54.474Z,44.3862
2023-04-16T08:24:57.401Z,48.0326
2023-04-16T08:26:00.352Z,47.6791
2023-04-16T08:27:17.279Z,47.9798
2023-04-16T08:28:06.271Z,47.3253
2023-04-16T08:29:09.450Z,43.8116
2023-04-16T08:30:12.162Z,43.0209
2023-04-16T08:31:15.136Z,46.4070
2023-04-16T08:32:18.035Z,44.5178
2023-04-16T08:33:20.988Z,47.7604
2023-04-16T08:34:23.980Z,46.6265
2023-04-16T08:35:26.875Z,49.6774
2023-04-16T08:36:29.821Z,46.0963
2023-04-16T08:37:32.786Z,47.9436
2023-04-16T08:38:35.832Z,49.2509
2023-04-16T08:39:38.705Z,47.2740
2023-04-16T08:40:41.777Z,49.1114
2023-04-16T08:41:44.636Z,50.4755
2023-04-16T08:42:47.522Z,49.1353
2023-04-16T08:43:50.525Z,47.6317
2023-04-16T08:44:53.407Z,48.2397
2023-04-16T08:45:56.475Z,47.1752
2023-04-16T08:46:59.444Z,48.3238
2023-04-16T08:48:02.360Z,50.7377
2023-04-16T08:49:05.207Z,50.5432
2023-04-16T08:50:08.180Z,46.5923
2023-04-16T08:51:11.257Z,41.8269
2023-04-16T08:52:14.024Z,38.5260
2023-04-16T08:53:16.978Z,36.3159
2023-04-16T08:54:19.920Z,34.9286
2023-04-16T08:55:22.870Z,35.7300
2023-04-16T08:56:25.832Z,37.0526
2023-04-16T08:57:28.782Z,37.0216
2023-04-16T08:58:31.713Z,35.0710
2023-04-16T08:59:34.649Z,38.4662
2023-04-16T09:00:37.621Z,39.4993
2023-04-16T09:01:40.629Z,38.4241
2023-04-16T09:02:43.739Z,35.2025
2023-04-16T09:03:46.614Z,34.0781
2023-04-16T09:04:49.425Z,37.1900
2023-04-16T09:05:52.329Z,38.4561
2023-04-16T09:06:55.301Z,38.5246
2023-04-16T09:07:58.201Z,40.8453
2023-04-16T09:09:01.166Z,44.6290
2023-04-16T09:10:04.134Z,46.3666
2023-04-16T09:11:07.312Z,49.9119
2023-04-16T09:12:10.000Z,46.2961
2023-04-16T09:13:12.920Z,47.7563
2023-04-16T09:14:15.867Z,44.3228
2023-04-16T09:15:18.796Z,44.9804
2023-04-16T09:16:21.775Z,46.0498
2023-04-16T09:17:24.740Z,45.5226
2023-04-16T09:18:27.638Z,46.2240
2023-04-16T09:19:30.569Z,45.7889
2023-04-16T09:20:33.515Z,43.9421
2023-04-16T09:21:36.488Z,43.9011
2023-04-16T09:22:39.429Z,42.9480
2023-04-16T09:23:42.358Z,44.2238
2023-04-16T09:24:45.311Z,42.8651
2023-04-16T09:25:48.274Z,46.0363
2023-04-16T09:26:51.209Z,43.9824
2023-04-16T09:27:54.268Z,49.9415
2023-04-16T09:28:57.098Z,44.8800
2023-04-16T09:30:00.045Z,47.4046
2023-04-16T09:31:02.983Z,46.2735
2023-04-16T09:32:06.013Z,46.5615
2023-04-16T09:33:09.061Z,46.2043
2023-04-16T09:34:11.820Z,47.7576
2023-04-16T09:35:14.800Z,45.7740
2023-04-16T09:36:17.709Z,45.0663
2023-04-16T09:37:20.632Z,47.5624
2023-04-16T09:38:23.596Z,49.0711
2023-04-16T09:39:26.530Z,44.8167
2023-04-16T09:40:29.469Z,44.8284
2023-04-16T09:41:32.432Z,44.7130
2023-04-16T09:42:35.356Z,48.7036
2023-04-16T09:43:38.313Z,47.0781
2023-04-16T09:44:41.247Z,46.6156
2023-04-16T09:45:44.233Z,44.4136
2023-04-16T09:46:47.139Z,49.4832
2023-04-16T09:47:50.174Z,48.5477
2023-04-16T09:48:53.020Z,46.2396
2023-04-16T09:49:55.964Z,51.6379
2023-04-16T09:50:58.911Z,51.7897
2023-04-16T09:52:01.856Z,53.2636
2023-04-16T09:53:04.891Z,49.8568
2023-04-16T09:54:07.835Z,50.4899
2023-04-16T09:55:10.688Z,52.8847
2023-04-16T09:56:13.706Z,45.3662
2023-04-16T09:57:16.587Z,52.6518
2023-04-16T09:58:19.581Z,52.1363
2023-04-16T09:59:22.539Z,56.2046
2023-04-16T10:00:25.432Z,49.9069
2023-04-16T10:01:28.391Z,53.1659
2023-04-16T10:02:31.375Z,55.4189
2023-04-16T10:03:34.514Z,53.3070
2023-04-16T10:04:37.233Z,54.8616
2023-04-16T10:05:40.136Z,51.0036
2023-04-16T10:06:43.091Z,51.8814
2023-04-16T10:07:46.054Z,51.5352
2023-04-16T10:08:50.260Z,55.3449
2023-04-16T10:09:52.044Z,51.8023
2023-04-16T10:10:54.877Z,51.8325
2023-04-16T10:11:57.841Z,50.7397
2023-04-16T10:13:00.832Z,49.9298
2023-04-16T10:14:03.742Z,49.6053
2023-04-16T10:15:06.680Z,51.7394
2023-04-16T10:16:09.607Z,52.8871
2023-04-16T10:17:12.661Z,50.9153
2023-04-16T10:18:15.522Z,46.5513
2023-04-16T10:19:18.503Z,49.0504
2023-04-16T10:20:21.401Z,46.3203
2023-04-16T10:21:24.357Z,43.6635
2023-04-16T10:22:27.307Z,45.0011
2023-04-16T10:23:30.276Z,47.8616
2023-04-16T10:24:33.198Z,47.3416
2023-04-16T10:25:36.135Z,49.5172
2023-04-16T10:26:39.064Z,48.7607
2023-04-16T10:27:42.009Z,47.5426
2023-04-16T10:28:44.953Z,47.0592
2023-04-16T10:29:47.910Z,50.5754
2023-04-16T10:30:50.875Z,49.2317
2023-04-16T10:31:53.831Z,49.7315
2023-04-16T10:32:58.958Z,49.1229
2023-04-16T10:33:59.672Z,45.0272
2023-04-16T10:35:02.650Z,49.6681
2023-04-16T10:36:07.677Z,50.4222
2023-04-16T10:37:08.505Z,50.4729
2023-04-16T10:38:11.451Z,49.6722
2023-04-16T10:39:16.843Z,52.4198
2023-04-16T10:40:17.441Z,50.7195
2023-04-16T10:41:20.307Z,50.4763
2023-04-16T10:42:23.245Z,52.5685
2023-04-16T10:43:26.170Z,53.4730
2023-04-16T10:44:29.118Z,52.4489
2023-04-16T10:45:32.072Z,56.4192
2023-04-16T10:46:35.095Z,55.5319
2023-04-16T10:47:38.057Z,53.0020
2023-04-16T10:48:49.676Z,52.5401
2023-04-16T10:49:44.031Z,51.5162
2023-04-16T10:50:46.846Z,52.5883
2023-04-16T10:51:49.742Z,51.3301
2023-04-16T10:52:52.698Z,56.3705
2023-04-16T10:53:55.668Z,56.9245
2023-04-16T10:54:58.570Z,52.2995
2023-04-16T10:56:01.597Z,57.5470
2023-04-16T10:57:04.780Z,55.4146
2023-04-16T10:58:07.414Z,52.7385
2023-04-16T10:59:10.543Z,51.8365
2023-04-16T11:00:13.295Z,49.1348
2023-04-16T11:01:16.313Z,48.8220
2023-04-16T11:02:19.720Z,50.2368
2023-04-16T11:03:22.221Z,52.2619
2023-04-16T11:04:25.387Z,50.6377
2023-04-16T11:05:28.010Z,53.8092
2023-04-16T11:06:30.965Z,52.1857
2023-04-16T11:07:33.936Z,56.8433
2023-04-16T11:08:51.092Z,50.5515
2023-04-16T11:09:39.833Z,54.2154
2023-04-16T11:10:42.743Z,50.7380
2023-04-16T11:11:45.679Z,53.7676
2023-04-16T11:12:48.638Z,52.4701
2023-04-16T11:13:51.574Z,53.6847
2023-04-16T11:14:54.643Z,52.1564
2023-04-16T11:15:57.489Z,53.6913
2023-04-16T11:17:00.403Z,53.2646
2023-04-16T11:18:03.385Z,51.5406
2023-04-16T11:19:06.296Z,49.9985
2023-04-16T11:20:19.474Z,50.8933
2023-04-16T11:21:12.326Z,51.2785
2023-04-16T11:22:15.125Z,53.0920
2023-04-16T11:23:18.080Z,54.2084
2023-04-16T11:24:21.016Z,55.8529
2023-04-16T11:25:23.989Z,52.4151
2023-04-16T11:26:26.931Z,51.9029
2023-04-16T11:27:29.874Z,55.4705
2023-04-16T11:28:32.804Z,58.4128
2023-04-16T11:29:35.743Z,59.5405
2023-04-16T11:30:38.726Z,52.4743
2023-04-16T11:31:41.707Z,56.5163
2023-04-16T11:32:44.655Z,58.0291
2023-04-16T11:33:47.523Z,57.5652
2023-04-16T11:34:50.453Z,57.4411
2023-04-16T11:35:53.408Z,55.7544
2023-04-16T11:36:56.340Z,53.9197
2023-04-16T11:37:59.405Z,58.2799
2023-04-16T11:39:02.248Z,53.0677
2023-04-16T11:40:05.186Z,54.1071
2023-04-16T11:41:08.151Z,57.6343
2023-04-16T11:42:11.217Z,55.4649
2023-04-16T11:43:14.028Z,59.6917
2023-04-16T11:44:16.972Z,58.4774
2023-04-16T11:45:19.988Z,56.5903
2023-04-16T11:46:27.825Z,54.3165
2023-04-16T11:47:25.949Z,54.1098
2023-04-16T11:48:28.800Z,51.3470
2023-04-16T11:49:31.713Z,50.3167
2023-04-16T11:50:34.676Z,51.5173
2023-04-16T11:51:37.591Z,49.2870
2023-04-16T11:52:40.561Z,50.4936
2023-04-16T11:53:43.510Z,48.5766
2023-04-16T11:54:46.445Z,50.0758
2023-04-16T11:55:49.382Z,48.7941
2023-04-16T11:56:52.333Z,51.5877
2023-04-16T11:57:55.302Z,52.6423
2023-04-16T11:58:58.250Z,51.4479
2023-04-16T12:00:03.472Z,49.7848
2023-04-16T12:01:04.118Z,49.9581
2023-04-16T12:02:07.210Z,49.0199
2023-04-16T12:03:10.347Z,48.6074
2023-04-16T12:04:13.164Z,50.7741
2023-04-16T12:05:15.932Z,46.3440
2023-04-16T12:06:18.834Z,48.3970
2023-04-16T12:07:21.790Z,51.4981
2023-04-16T12:08:24.725Z,49.7411
2023-04-16T12:09:27.705Z,47.8912
2023-04-16T12:10:30.636Z,51.2727
2023-04-16T12:11:33.565Z,46.9271
2023-04-16T12:12:36.564Z,45.9450
2023-04-16T12:13:39.480Z,47.2303
2023-04-16T12:14:42.395Z,47.7611
2023-04-16T12:15:45.367Z,44.5822
2023-04-16T12:16:48.419Z,48.4311
2023-04-16T12:17:51.270Z,48.1007
2023-04-16T12:18:54.242Z,46.4515
2023-04-16T12:19:57.143Z,46.3707
2023-04-16T12:21:00.173Z,45.7714
2023-04-16T12:22:03.116Z,48.8490
2023-04-16T12:23:06.073Z,51.7176
2023-04-16T12:24:08.999Z,46.5036
2023-04-16T12:25:11.981Z,47.5350
2023-04-16T12:26:15.002Z,43.0216
2023-04-16T12:27:17.878Z,41.1184
2023-04-16T12:28:20.777Z,44.1992
2023-04-16T12:29:23.804Z,46.1682
2023-04-16T12:30:26.685Z,42.3495
2023-04-16T12:31:29.625Z,42.3163
2023-04-16T12:32:32.583Z,41.7129
2023-04-16T12:33:35.521Z,43.7539
2023-04-16T12:34:49.220Z,41.9850
2023-04-16T12:35:41.423Z,48.7549
2023-04-16T12:36:44.354Z,52.7499
2023-04-16T12:37:47.301Z,75.9910
2023-04-16T12:38:50.267Z,95.0851
2023-04-16T12:39:53.198Z,80.9395
2023-04-16T12:40:56.191Z,59.3179
2023-04-16T12:41:59.118Z,45.3830
2023-04-16T12:43:02.039Z,42.0338